sensor_id;sensor_type;location;lat;lon;timestamp;P1;durP1;ratioP1;P2;durP2;ratioP2
3050;SDS011;1535;51.098;6.414;2023-05-10T00:02:24;6.00;;;5.70;;
3050;SDS011;1535;51.098;6.414;2023-05-10T00:04:51;4.23;;;4.13;;
3050;SDS011;1535;51.098;6.414;2023-05-10T00:07:18;4.70;;;4.50;;
3050;SDS011;1535;51.098;6.414;2023-05-10T00:09:45;6.27;;;5.63;;
3050;SDS011;1535;51.098;6.414;2023-05-10T00:12:13;5.80;;;5.60;;
3050;SDS011;1535;51.098;6.414;2023-05-10T00:14:40;5.87;;;5.37;;
3050;SDS011;1535;51.098;6.414;2023-05-10T00:17:07;5.40;;;5.20;;
3050;SDS011;1535;51.098;6.414;2023-05-10T00:19:35;5.90;;;5.70;;
3050;SDS011;1535;51.098;6.414;2023-05-10T00:22:01;4.47;;;4.37;;
3050;SDS011;1535;51.098;6.414;2023-05-10T00:24:29;5.77;;;5.47;;
3050;SDS011;1535;51.098;6.414;2023-05-10T00:26:56;6.33;;;5.93;;
3050;SDS011;1535;51.098;6.414;2023-05-10T00:29:24;6.57;;;6.07;;
3050;SDS011;1535;51.098;6.414;2023-05-10T00:31:53;7.43;;;4.70;;
3050;SDS011;1535;51.098;6.414;2023-05-10T00:34:20;5.10;;;4.80;;
3050;SDS011;1535;51.098;6.414;2023-05-10T00:36:47;4.23;;;4.13;;
3050;SDS011;1535;51.098;6.414;2023-05-10T00:39:14;4.30;;;4.10;;
3050;SDS011;1535;51.098;6.414;2023-05-10T00:41:43;3.70;;;3.60;;
3050;SDS011;1535;51.098;6.414;2023-05-10T00:44:10;5.97;;;5.67;;
3050;SDS011;1535;51.098;6.414;2023-05-10T00:46:38;4.80;;;4.60;;
3050;SDS011;1535;51.098;6.414;2023-05-10T00:49:05;5.70;;;5.50;;
3050;SDS011;1535;51.098;6.414;2023-05-10T00:51:33;5.73;;;5.53;;
3050;SDS011;1535;51.098;6.414;2023-05-10T00:54:03;5.50;;;5.30;;
3050;SDS011;1535;51.098;6.414;2023-05-10T00:56:30;5.60;;;5.40;;
3050;SDS011;1535;51.098;6.414;2023-05-10T00:58:57;5.50;;;5.30;;
3050;SDS011;1535;51.098;6.414;2023-05-10T01:01:24;6.00;;;5.60;;
3050;SDS011;1535;51.098;6.414;2023-05-10T01:03:53;4.60;;;4.50;;
3050;SDS011;1535;51.098;6.414;2023-05-10T01:06:21;4.60;;;4.50;;
3050;SDS011;1535;51.098;6.414;2023-05-10T01:08:49;4.83;;;4.57;;
3050;SDS011;1535;51.098;6.414;2023-05-10T01:11:17;4.93;;;4.73;;
3050;SDS011;1535;51.098;6.414;2023-05-10T01:13:53;4.60;;;4.50;;
3050;SDS011;1535;51.098;6.414;2023-05-10T01:16:23;4.03;;;3.93;;
3050;SDS011;1535;51.098;6.414;2023-05-10T01:18:50;4.20;;;4.10;;
3050;SDS011;1535;51.098;6.414;2023-05-10T01:21:21;4.80;;;4.70;;
3050;SDS011;1535;51.098;6.414;2023-05-10T01:24:07;4.50;;;4.40;;
3050;SDS011;1535;51.098;6.414;2023-05-10T01:26:47;4.53;;;4.43;;
3050;SDS011;1535;51.098;6.414;2023-05-10T01:29:44;4.57;;;4.47;;
3050;SDS011;1535;51.098;6.414;2023-05-10T01:32:36;5.60;;;5.40;;
3050;SDS011;1535;51.098;6.414;2023-05-10T01:35:10;11.97;;;9.00;;
3050;SDS011;1535;51.098;6.414;2023-05-10T01:37:45;4.97;;;4.83;;
3050;SDS011;1535;51.098;6.414;2023-05-10T01:40:18;5.50;;;5.30;;
3050;SDS011;1535;51.098;6.414;2023-05-10T01:42:50;5.60;;;5.40;;
3050;SDS011;1535;51.098;6.414;2023-05-10T01:45:22;4.80;;;4.70;;
3050;SDS011;1535;51.098;6.414;2023-05-10T01:48:03;5.37;;;5.17;;
3050;SDS011;1535;51.098;6.414;2023-05-10T01:50:32;4.90;;;4.80;;
3050;SDS011;1535;51.098;6.414;2023-05-10T01:53:02;5.67;;;5.47;;
3050;SDS011;1535;51.098;6.414;2023-05-10T01:55:32;4.73;;;4.63;;
3050;SDS011;1535;51.098;6.414;2023-05-10T01:58:03;5.17;;;5.03;;
3050;SDS011;1535;51.098;6.414;2023-05-10T02:00:33;5.03;;;4.93;;
3050;SDS011;1535;51.098;6.414;2023-05-10T02:03:01;4.90;;;4.80;;
3050;SDS011;1535;51.098;6.414;2023-05-10T02:05:33;5.50;;;5.30;;
3050;SDS011;1535;51.098;6.414;2023-05-10T02:08:03;4.93;;;4.83;;
3050;SDS011;1535;51.098;6.414;2023-05-10T02:10:33;5.07;;;4.97;;
3050;SDS011;1535;51.098;6.414;2023-05-10T02:13:01;5.07;;;4.97;;
3050;SDS011;1535;51.098;6.414;2023-05-10T02:15:30;5.53;;;5.33;;
3050;SDS011;1535;51.098;6.414;2023-05-10T02:17:58;6.17;;;5.97;;
3050;SDS011;1535;51.098;6.414;2023-05-10T02:20:30;5.93;;;5.73;;
3050;SDS011;1535;51.098;6.414;2023-05-10T02:22:58;5.53;;;5.33;;
3050;SDS011;1535;51.098;6.414;2023-05-10T02:25:28;5.73;;;5.53;;
3050;SDS011;1535;51.098;6.414;2023-05-10T02:27:56;5.90;;;5.70;;
3050;SDS011;1535;51.098;6.414;2023-05-10T02:30:26;6.47;;;6.20;;
3050;SDS011;1535;51.098;6.414;2023-05-10T02:32:54;5.50;;;5.30;;
3050;SDS011;1535;51.098;6.414;2023-05-10T02:35:22;5.90;;;5.70;;
3050;SDS011;1535;51.098;6.414;2023-05-10T02:37:53;6.03;;;5.83;;
3050;SDS011;1535;51.098;6.414;2023-05-10T02:40:21;5.40;;;5.20;;
3050;SDS011;1535;51.098;6.414;2023-05-10T02:42:49;6.43;;;6.07;;
3050;SDS011;1535;51.098;6.414;2023-05-10T02:45:19;6.93;;;6.40;;
3050;SDS011;1535;51.098;6.414;2023-05-10T02:47:49;5.60;;;5.40;;
3050;SDS011;1535;51.098;6.414;2023-05-10T02:50:17;7.37;;;6.97;;
3050;SDS011;1535;51.098;6.414;2023-05-10T02:52:44;6.80;;;6.40;;
3050;SDS011;1535;51.098;6.414;2023-05-10T02:55:19;5.97;;;5.77;;
3050;SDS011;1535;51.098;6.414;2023-05-10T02:57:48;8.40;;;8.00;;
3050;SDS011;1535;51.098;6.414;2023-05-10T03:00:19;7.03;;;6.73;;
3050;SDS011;1535;51.098;6.414;2023-05-10T03:02:46;5.60;;;5.40;;
3050;SDS011;1535;51.098;6.414;2023-05-10T03:05:13;5.40;;;5.20;;
3050;SDS011;1535;51.098;6.414;2023-05-10T03:07:39;7.73;;;6.67;;
3050;SDS011;1535;51.098;6.414;2023-05-10T03:10:08;4.53;;;4.43;;
3050;SDS011;1535;51.098;6.414;2023-05-10T03:12:41;6.47;;;6.03;;
3050;SDS011;1535;51.098;6.414;2023-05-10T03:15:19;5.87;;;5.67;;
3050;SDS011;1535;51.098;6.414;2023-05-10T03:17:55;7.63;;;7.03;;
3050;SDS011;1535;51.098;6.414;2023-05-10T03:20:29;6.03;;;5.83;;
3050;SDS011;1535;51.098;6.414;2023-05-10T03:23:02;6.30;;;5.90;;
3050;SDS011;1535;51.098;6.414;2023-05-10T03:25:34;5.93;;;5.53;;
3050;SDS011;1535;51.098;6.414;2023-05-10T03:28:04;5.83;;;5.53;;
3050;SDS011;1535;51.098;6.414;2023-05-10T03:30:31;8.70;;;5.90;;
3050;SDS011;1535;51.098;6.414;2023-05-10T03:33:03;4.70;;;4.50;;
3050;SDS011;1535;51.098;6.414;2023-05-10T03:35:31;5.10;;;4.90;;
3050;SDS011;1535;51.098;6.414;2023-05-10T03:37:59;7.43;;;6.67;;
3050;SDS011;1535;51.098;6.414;2023-05-10T03:40:26;16.97;;;6.80;;
3050;SDS011;1535;51.098;6.414;2023-05-10T03:42:56;11.40;;;10.30;;
3050;SDS011;1535;51.098;6.414;2023-05-10T03:45:25;8.73;;;6.47;;
3050;SDS011;1535;51.098;6.414;2023-05-10T03:47:52;8.87;;;8.00;;
3050;SDS011;1535;51.098;6.414;2023-05-10T03:50:19;5.57;;;5.27;;
3050;SDS011;1535;51.098;6.414;2023-05-10T03:52:46;4.60;;;4.37;;
3050;SDS011;1535;51.098;6.414;2023-05-10T03:55:14;5.43;;;5.17;;
3050;SDS011;1535;51.098;6.414;2023-05-10T03:57:42;6.40;;;6.00;;
3050;SDS011;1535;51.098;6.414;2023-05-10T04:00:10;8.17;;;6.83;;
3050;SDS011;1535;51.098;6.414;2023-05-10T04:02:39;4.23;;;4.13;;
3050;SDS011;1535;51.098;6.414;2023-05-10T04:05:06;7.80;;;7.13;;
3050;SDS011;1535;51.098;6.414;2023-05-10T04:07:34;6.77;;;6.30;;
3050;SDS011;1535;51.098;6.414;2023-05-10T04:10:02;5.87;;;5.47;;
3050;SDS011;1535;51.098;6.414;2023-05-10T04:12:29;5.00;;;4.70;;
3050;SDS011;1535;51.098;6.414;2023-05-10T04:14:56;7.00;;;6.20;;
3050;SDS011;1535;51.098;6.414;2023-05-10T04:17:24;6.90;;;5.53;;
3050;SDS011;1535;51.098;6.414;2023-05-10T04:19:53;5.20;;;4.90;;
3050;SDS011;1535;51.098;6.414;2023-05-10T04:22:20;5.30;;;5.00;;
3050;SDS011;1535;51.098;6.414;2023-05-10T04:24:47;4.67;;;4.43;;
3050;SDS011;1535;51.098;6.414;2023-05-10T04:27:13;12.90;;;8.03;;
3050;SDS011;1535;51.098;6.414;2023-05-10T04:29:40;10.37;;;8.73;;
3050;SDS011;1535;51.098;6.414;2023-05-10T04:32:08;6.83;;;6.17;;
3050;SDS011;1535;51.098;6.414;2023-05-10T04:34:36;5.30;;;5.00;;
3050;SDS011;1535;51.098;6.414;2023-05-10T04:37:04;5.20;;;4.90;;
3050;SDS011;1535;51.098;6.414;2023-05-10T04:39:33;9.60;;;5.13;;
3050;SDS011;1535;51.098;6.414;2023-05-10T04:42:00;7.43;;;6.83;;
3050;SDS011;1535;51.098;6.414;2023-05-10T04:44:27;6.30;;;5.80;;
3050;SDS011;1535;51.098;6.414;2023-05-10T04:46:55;5.17;;;4.90;;
3050;SDS011;1535;51.098;6.414;2023-05-10T04:49:23;6.20;;;5.90;;
3050;SDS011;1535;51.098;6.414;2023-05-10T04:51:50;6.77;;;6.17;;
3050;SDS011;1535;51.098;6.414;2023-05-10T04:54:18;4.10;;;4.00;;
3050;SDS011;1535;51.098;6.414;2023-05-10T04:56:44;4.20;;;4.10;;
3050;SDS011;1535;51.098;6.414;2023-05-10T04:59:11;6.03;;;5.73;;
3050;SDS011;1535;51.098;6.414;2023-05-10T05:01:38;5.00;;;4.80;;
3050;SDS011;1535;51.098;6.414;2023-05-10T05:04:05;3.90;;;3.80;;
3050;SDS011;1535;51.098;6.414;2023-05-10T05:06:33;8.80;;;6.60;;
3050;SDS011;1535;51.098;6.414;2023-05-10T05:09:00;5.00;;;4.80;;
3050;SDS011;1535;51.098;6.414;2023-05-10T05:11:28;13.60;;;9.07;;
3050;SDS011;1535;51.098;6.414;2023-05-10T05:13:55;10.33;;;9.13;;
3050;SDS011;1535;51.098;6.414;2023-05-10T05:16:24;7.00;;;6.50;;
3050;SDS011;1535;51.098;6.414;2023-05-10T05:18:51;5.83;;;5.50;;
3050;SDS011;1535;51.098;6.414;2023-05-10T05:21:18;3.93;;;3.83;;
3050;SDS011;1535;51.098;6.414;2023-05-10T05:23:46;7.13;;;6.73;;
3050;SDS011;1535;51.098;6.414;2023-05-10T05:26:13;10.10;;;7.33;;
3050;SDS011;1535;51.098;6.414;2023-05-10T05:28:42;5.77;;;5.23;;
3050;SDS011;1535;51.098;6.414;2023-05-10T05:31:09;5.03;;;4.70;;
3050;SDS011;1535;51.098;6.414;2023-05-10T05:33:36;6.57;;;6.13;;
3050;SDS011;1535;51.098;6.414;2023-05-10T05:36:04;4.00;;;3.90;;
3050;SDS011;1535;51.098;6.414;2023-05-10T05:38:32;11.03;;;4.97;;
3050;SDS011;1535;51.098;6.414;2023-05-10T05:41:00;3.77;;;3.67;;
3050;SDS011;1535;51.098;6.414;2023-05-10T05:43:27;7.83;;;7.33;;
3050;SDS011;1535;51.098;6.414;2023-05-10T05:45:56;9.90;;;6.70;;
3050;SDS011;1535;51.098;6.414;2023-05-10T05:48:23;8.10;;;7.50;;
3050;SDS011;1535;51.098;6.414;2023-05-10T05:50:53;7.97;;;7.50;;
3050;SDS011;1535;51.098;6.414;2023-05-10T05:53:21;9.00;;;8.40;;
3050;SDS011;1535;51.098;6.414;2023-05-10T05:55:51;9.80;;;8.30;;
3050;SDS011;1535;51.098;6.414;2023-05-10T05:58:19;6.63;;;6.37;;
3050;SDS011;1535;51.098;6.414;2023-05-10T06:00:46;6.57;;;6.17;;
3050;SDS011;1535;51.098;6.414;2023-05-10T06:03:14;6.67;;;6.37;;
3050;SDS011;1535;51.098;6.414;2023-05-10T06:05:42;7.57;;;7.17;;
3050;SDS011;1535;51.098;6.414;2023-05-10T06:08:10;5.80;;;5.50;;
3050;SDS011;1535;51.098;6.414;2023-05-10T06:10:37;5.33;;;5.13;;
3050;SDS011;1535;51.098;6.414;2023-05-10T06:13:03;7.97;;;7.40;;
3050;SDS011;1535;51.098;6.414;2023-05-10T06:15:32;5.37;;;5.17;;
3050;SDS011;1535;51.098;6.414;2023-05-10T06:17:59;6.37;;;6.07;;
3050;SDS011;1535;51.098;6.414;2023-05-10T06:20:27;9.23;;;8.43;;
3050;SDS011;1535;51.098;6.414;2023-05-10T06:22:57;4.90;;;4.70;;
3050;SDS011;1535;51.098;6.414;2023-05-10T06:25:24;8.53;;;7.70;;
3050;SDS011;1535;51.098;6.414;2023-05-10T06:27:50;5.33;;;5.00;;
3050;SDS011;1535;51.098;6.414;2023-05-10T06:30:22;7.40;;;5.70;;
3050;SDS011;1535;51.098;6.414;2023-05-10T06:32:52;6.53;;;5.90;;
3050;SDS011;1535;51.098;6.414;2023-05-10T06:35:20;5.47;;;4.97;;
3050;SDS011;1535;51.098;6.414;2023-05-10T06:37:49;4.90;;;4.70;;
3050;SDS011;1535;51.098;6.414;2023-05-10T06:40:17;7.20;;;6.70;;
3050;SDS011;1535;51.098;6.414;2023-05-10T06:42:44;5.03;;;4.73;;
3050;SDS011;1535;51.098;6.414;2023-05-10T06:45:11;15.93;;;6.30;;
3050;SDS011;1535;51.098;6.414;2023-05-10T06:47:38;4.57;;;4.40;;
3050;SDS011;1535;51.098;6.414;2023-05-10T06:50:05;8.77;;;7.30;;
3050;SDS011;1535;51.098;6.414;2023-05-10T06:52:33;7.53;;;7.00;;
3050;SDS011;1535;51.098;6.414;2023-05-10T06:55:01;7.07;;;6.77;;
3050;SDS011;1535;51.098;6.414;2023-05-10T06:57:30;5.80;;;5.60;;
3050;SDS011;1535;51.098;6.414;2023-05-10T06:59:57;8.00;;;7.53;;
3050;SDS011;1535;51.098;6.414;2023-05-10T07:02:24;7.23;;;6.73;;
3050;SDS011;1535;51.098;6.414;2023-05-10T07:04:51;10.63;;;9.47;;
3050;SDS011;1535;51.098;6.414;2023-05-10T07:07:19;9.40;;;8.60;;
3050;SDS011;1535;51.098;6.414;2023-05-10T07:09:47;7.17;;;6.87;;
3050;SDS011;1535;51.098;6.414;2023-05-10T07:12:16;7.10;;;6.70;;
3050;SDS011;1535;51.098;6.414;2023-05-10T07:14:42;11.27;;;10.20;;
3050;SDS011;1535;51.098;6.414;2023-05-10T07:17:09;4.23;;;4.13;;
3050;SDS011;1535;51.098;6.414;2023-05-10T07:19:36;4.80;;;4.60;;
3050;SDS011;1535;51.098;6.414;2023-05-10T07:22:03;7.20;;;6.70;;
3050;SDS011;1535;51.098;6.414;2023-05-10T07:24:31;7.17;;;6.00;;
3050;SDS011;1535;51.098;6.414;2023-05-10T07:26:59;6.73;;;6.23;;
3050;SDS011;1535;51.098;6.414;2023-05-10T07:29:28;5.90;;;5.30;;
3050;SDS011;1535;51.098;6.414;2023-05-10T07:31:55;3.37;;;3.20;;
3050;SDS011;1535;51.098;6.414;2023-05-10T07:34:21;4.50;;;2.53;;
3050;SDS011;1535;51.098;6.414;2023-05-10T07:36:49;14.20;;;7.00;;
3050;SDS011;1535;51.098;6.414;2023-05-10T07:39:16;13.17;;;6.53;;
3050;SDS011;1535;51.098;6.414;2023-05-10T07:41:42;12.83;;;8.40;;
3050;SDS011;1535;51.098;6.414;2023-05-10T07:44:09;9.30;;;4.90;;
3050;SDS011;1535;51.098;6.414;2023-05-10T07:46:38;6.90;;;6.10;;
3050;SDS011;1535;51.098;6.414;2023-05-10T07:49:05;13.43;;;7.43;;
3050;SDS011;1535;51.098;6.414;2023-05-10T07:51:32;23.37;;;11.40;;
3050;SDS011;1535;51.098;6.414;2023-05-10T07:53:59;7.00;;;6.30;;
3050;SDS011;1535;51.098;6.414;2023-05-10T07:56:28;5.33;;;4.93;;
3050;SDS011;1535;51.098;6.414;2023-05-10T07:58:58;11.70;;;9.80;;
3050;SDS011;1535;51.098;6.414;2023-05-10T08:01:25;13.27;;;9.23;;
3050;SDS011;1535;51.098;6.414;2023-05-10T08:03:53;7.00;;;6.47;;
3050;SDS011;1535;51.098;6.414;2023-05-10T08:06:20;12.00;;;8.23;;
3050;SDS011;1535;51.098;6.414;2023-05-10T08:08:47;12.07;;;9.57;;
3050;SDS011;1535;51.098;6.414;2023-05-10T08:11:15;8.10;;;7.47;;
3050;SDS011;1535;51.098;6.414;2023-05-10T08:13:42;8.43;;;7.80;;
3050;SDS011;1535;51.098;6.414;2023-05-10T08:16:09;12.60;;;11.53;;
3050;SDS011;1535;51.098;6.414;2023-05-10T08:18:36;6.57;;;6.20;;
3050;SDS011;1535;51.098;6.414;2023-05-10T08:21:05;14.03;;;11.30;;
3050;SDS011;1535;51.098;6.414;2023-05-10T08:23:32;13.23;;;11.87;;
3050;SDS011;1535;51.098;6.414;2023-05-10T08:25:59;12.00;;;10.60;;
3050;SDS011;1535;51.098;6.414;2023-05-10T08:28:27;8.47;;;7.93;;
3050;SDS011;1535;51.098;6.414;2023-05-10T08:30:54;8.80;;;8.33;;
3050;SDS011;1535;51.098;6.414;2023-05-10T08:33:22;10.53;;;9.90;;
3050;SDS011;1535;51.098;6.414;2023-05-10T08:35:49;20.83;;;14.33;;
3050;SDS011;1535;51.098;6.414;2023-05-10T08:38:17;11.90;;;11.00;;
3050;SDS011;1535;51.098;6.414;2023-05-10T08:40:45;9.67;;;9.23;;
3050;SDS011;1535;51.098;6.414;2023-05-10T08:43:15;11.53;;;10.37;;
3050;SDS011;1535;51.098;6.414;2023-05-10T08:45:43;13.10;;;9.60;;
3050;SDS011;1535;51.098;6.414;2023-05-10T08:48:11;16.93;;;12.70;;
3050;SDS011;1535;51.098;6.414;2023-05-10T08:50:40;11.33;;;10.53;;
3050;SDS011;1535;51.098;6.414;2023-05-10T08:53:09;13.60;;;12.37;;
3050;SDS011;1535;51.098;6.414;2023-05-10T08:55:39;17.90;;;16.30;;
3050;SDS011;1535;51.098;6.414;2023-05-10T08:58:08;11.70;;;11.10;;
3050;SDS011;1535;51.098;6.414;2023-05-10T09:00:35;14.57;;;13.33;;
3050;SDS011;1535;51.098;6.414;2023-05-10T09:03:03;15.97;;;12.63;;
3050;SDS011;1535;51.098;6.414;2023-05-10T09:05:32;12.43;;;11.50;;
3050;SDS011;1535;51.098;6.414;2023-05-10T09:07:58;16.90;;;15.37;;
3050;SDS011;1535;51.098;6.414;2023-05-10T09:10:26;11.67;;;11.00;;
3050;SDS011;1535;51.098;6.414;2023-05-10T09:12:56;14.07;;;12.73;;
3050;SDS011;1535;51.098;6.414;2023-05-10T09:15:24;13.57;;;12.73;;
3050;SDS011;1535;51.098;6.414;2023-05-10T09:17:50;19.87;;;17.50;;
3050;SDS011;1535;51.098;6.414;2023-05-10T09:20:17;16.80;;;15.17;;
3050;SDS011;1535;51.098;6.414;2023-05-10T09:22:44;15.53;;;14.23;;
3050;SDS011;1535;51.098;6.414;2023-05-10T09:25:12;20.00;;;18.00;;
3050;SDS011;1535;51.098;6.414;2023-05-10T09:27:40;15.83;;;14.50;;
3050;SDS011;1535;51.098;6.414;2023-05-10T09:30:09;13.90;;;13.00;;
3050;SDS011;1535;51.098;6.414;2023-05-10T09:32:37;16.50;;;14.47;;
3050;SDS011;1535;51.098;6.414;2023-05-10T09:35:09;13.97;;;12.97;;
3050;SDS011;1535;51.098;6.414;2023-05-10T09:37:37;15.03;;;13.93;;
3050;SDS011;1535;51.098;6.414;2023-05-10T09:40:07;17.13;;;15.70;;
3050;SDS011;1535;51.098;6.414;2023-05-10T09:42:37;15.83;;;14.87;;
3050;SDS011;1535;51.098;6.414;2023-05-10T09:45:05;15.87;;;14.87;;
3050;SDS011;1535;51.098;6.414;2023-05-10T09:47:34;15.40;;;14.27;;
3050;SDS011;1535;51.098;6.414;2023-05-10T09:50:02;31.17;;;13.30;;
3050;SDS011;1535;51.098;6.414;2023-05-10T09:52:30;16.70;;;15.47;;
3050;SDS011;1535;51.098;6.414;2023-05-10T09:55:12;16.77;;;15.40;;
3050;SDS011;1535;51.098;6.414;2023-05-10T09:57:39;16.67;;;15.60;;
3050;SDS011;1535;51.098;6.414;2023-05-10T10:00:07;16.37;;;15.07;;
3050;SDS011;1535;51.098;6.414;2023-05-10T10:02:36;15.90;;;14.77;;
3050;SDS011;1535;51.098;6.414;2023-05-10T10:05:05;14.90;;;14.03;;
3050;SDS011;1535;51.098;6.414;2023-05-10T10:07:32;19.17;;;14.27;;
3050;SDS011;1535;51.098;6.414;2023-05-10T10:10:02;15.63;;;14.60;;
3050;SDS011;1535;51.098;6.414;2023-05-10T10:12:30;14.00;;;13.30;;
3050;SDS011;1535;51.098;6.414;2023-05-10T10:14:56;17.87;;;16.63;;
3050;SDS011;1535;51.098;6.414;2023-05-10T10:17:26;16.30;;;14.97;;
3050;SDS011;1535;51.098;6.414;2023-05-10T10:19:57;14.70;;;13.90;;
3050;SDS011;1535;51.098;6.414;2023-05-10T10:22:24;15.80;;;14.77;;
3050;SDS011;1535;51.098;6.414;2023-05-10T10:24:51;14.33;;;13.67;;
3050;SDS011;1535;51.098;6.414;2023-05-10T10:27:20;17.30;;;15.83;;
3050;SDS011;1535;51.098;6.414;2023-05-10T10:29:58;16.50;;;15.30;;
3050;SDS011;1535;51.098;6.414;2023-05-10T10:32:32;14.23;;;13.43;;
3050;SDS011;1535;51.098;6.414;2023-05-10T10:35:09;14.83;;;14.03;;
3050;SDS011;1535;51.098;6.414;2023-05-10T10:37:43;14.43;;;13.73;;
3050;SDS011;1535;51.098;6.414;2023-05-10T10:40:22;17.03;;;15.83;;
3050;SDS011;1535;51.098;6.414;2023-05-10T10:42:49;15.33;;;14.30;;
3050;SDS011;1535;51.098;6.414;2023-05-10T10:45:16;15.23;;;14.33;;
3050;SDS011;1535;51.098;6.414;2023-05-10T10:47:44;15.93;;;14.93;;
3050;SDS011;1535;51.098;6.414;2023-05-10T10:50:12;18.87;;;17.30;;
3050;SDS011;1535;51.098;6.414;2023-05-10T10:52:41;14.20;;;13.50;;
3050;SDS011;1535;51.098;6.414;2023-05-10T10:55:09;16.50;;;15.40;;
3050;SDS011;1535;51.098;6.414;2023-05-10T10:57:45;15.80;;;14.80;;
3050;SDS011;1535;51.098;6.414;2023-05-10T11:00:23;16.37;;;15.17;;
3050;SDS011;1535;51.098;6.414;2023-05-10T11:02:56;13.73;;;13.13;;
3050;SDS011;1535;51.098;6.414;2023-05-10T11:05:33;14.90;;;14.10;;
3050;SDS011;1535;51.098;6.414;2023-05-10T11:08:06;15.27;;;14.23;;
3050;SDS011;1535;51.098;6.414;2023-05-10T11:10:38;14.77;;;13.67;;
3050;SDS011;1535;51.098;6.414;2023-05-10T11:13:06;12.07;;;11.57;;
3050;SDS011;1535;51.098;6.414;2023-05-10T11:15:36;14.13;;;13.23;;
3050;SDS011;1535;51.098;6.414;2023-05-10T11:18:16;13.23;;;12.63;;
3050;SDS011;1535;51.098;6.414;2023-05-10T11:20:46;16.37;;;15.27;;
3050;SDS011;1535;51.098;6.414;2023-05-10T11:23:17;15.97;;;15.00;;
3050;SDS011;1535;51.098;6.414;2023-05-10T11:25:46;15.73;;;14.53;;
3050;SDS011;1535;51.098;6.414;2023-05-10T11:28:16;13.73;;;13.07;;
3050;SDS011;1535;51.098;6.414;2023-05-10T11:30:43;13.37;;;12.60;;
3050;SDS011;1535;51.098;6.414;2023-05-10T11:33:14;15.00;;;14.10;;
3050;SDS011;1535;51.098;6.414;2023-05-10T11:35:41;14.30;;;13.13;;
3050;SDS011;1535;51.098;6.414;2023-05-10T11:38:10;13.23;;;12.63;;
3050;SDS011;1535;51.098;6.414;2023-05-10T11:40:38;12.17;;;11.57;;
3050;SDS011;1535;51.098;6.414;2023-05-10T11:43:08;15.00;;;14.20;;
3050;SDS011;1535;51.098;6.414;2023-05-10T11:45:35;14.40;;;13.70;;
3050;SDS011;1535;51.098;6.414;2023-05-10T11:48:03;14.80;;;13.90;;
3050;SDS011;1535;51.098;6.414;2023-05-10T11:50:30;14.60;;;13.80;;
3050;SDS011;1535;51.098;6.414;2023-05-10T11:52:57;17.33;;;16.00;;
3050;SDS011;1535;51.098;6.414;2023-05-10T11:55:26;13.13;;;12.63;;
3050;SDS011;1535;51.098;6.414;2023-05-10T11:57:55;12.20;;;11.70;;
3050;SDS011;1535;51.098;6.414;2023-05-10T12:00:26;13.47;;;12.57;;
3050;SDS011;1535;51.098;6.414;2023-05-10T12:02:53;10.13;;;9.73;;
3050;SDS011;1535;51.098;6.414;2023-05-10T12:05:20;12.63;;;11.97;;
3050;SDS011;1535;51.098;6.414;2023-05-10T12:07:48;16.17;;;15.27;;
3050;SDS011;1535;51.098;6.414;2023-05-10T12:10:15;14.53;;;13.83;;
3050;SDS011;1535;51.098;6.414;2023-05-10T12:12:44;13.60;;;12.90;;
3050;SDS011;1535;51.098;6.414;2023-05-10T12:15:12;15.47;;;14.57;;
3050;SDS011;1535;51.098;6.414;2023-05-10T12:17:44;15.37;;;14.20;;
3050;SDS011;1535;51.098;6.414;2023-05-10T12:20:17;13.23;;;12.50;;
3050;SDS011;1535;51.098;6.414;2023-05-10T12:22:45;12.03;;;11.53;;
3050;SDS011;1535;51.098;6.414;2023-05-10T12:25:13;15.50;;;14.50;;
3050;SDS011;1535;51.098;6.414;2023-05-10T12:27:41;14.40;;;13.50;;
3050;SDS011;1535;51.098;6.414;2023-05-10T12:30:20;15.53;;;14.63;;
3050;SDS011;1535;51.098;6.414;2023-05-10T12:32:48;13.10;;;12.20;;
3050;SDS011;1535;51.098;6.414;2023-05-10T12:35:14;9.57;;;9.17;;
3050;SDS011;1535;51.098;6.414;2023-05-10T12:37:42;9.70;;;9.17;;
3050;SDS011;1535;51.098;6.414;2023-05-10T12:40:10;9.60;;;9.07;;
3050;SDS011;1535;51.098;6.414;2023-05-10T12:42:38;9.13;;;8.83;;
3050;SDS011;1535;51.098;6.414;2023-05-10T12:45:07;10.37;;;9.97;;
3050;SDS011;1535;51.098;6.414;2023-05-10T12:47:34;10.40;;;10.00;;
3050;SDS011;1535;51.098;6.414;2023-05-10T12:50:01;11.50;;;11.00;;
3050;SDS011;1535;51.098;6.414;2023-05-10T12:52:29;14.47;;;13.67;;
3050;SDS011;1535;51.098;6.414;2023-05-10T12:54:57;14.70;;;13.90;;
3050;SDS011;1535;51.098;6.414;2023-05-10T12:57:25;16.87;;;15.83;;
3050;SDS011;1535;51.098;6.414;2023-05-10T12:59:51;17.30;;;16.23;;
3050;SDS011;1535;51.098;6.414;2023-05-10T13:02:20;16.40;;;15.60;;
3050;SDS011;1535;51.098;6.414;2023-05-10T13:04:48;16.60;;;15.13;;
3050;SDS011;1535;51.098;6.414;2023-05-10T13:07:15;15.10;;;14.07;;
3050;SDS011;1535;51.098;6.414;2023-05-10T13:09:42;14.57;;;13.87;;
3050;SDS011;1535;51.098;6.414;2023-05-10T13:12:09;15.27;;;14.47;;
3050;SDS011;1535;51.098;6.414;2023-05-10T13:14:36;14.97;;;14.27;;
3050;SDS011;1535;51.098;6.414;2023-05-10T13:17:05;15.80;;;15.00;;
3050;SDS011;1535;51.098;6.414;2023-05-10T13:19:34;15.07;;;14.37;;
3050;SDS011;1535;51.098;6.414;2023-05-10T13:22:00;15.33;;;14.53;;
3050;SDS011;1535;51.098;6.414;2023-05-10T13:24:27;16.17;;;15.37;;
3050;SDS011;1535;51.098;6.414;2023-05-10T13:26:54;16.37;;;15.47;;
3050;SDS011;1535;51.098;6.414;2023-05-10T13:29:21;16.37;;;15.57;;
3050;SDS011;1535;51.098;6.414;2023-05-10T13:31:48;15.20;;;14.50;;
3050;SDS011;1535;51.098;6.414;2023-05-10T13:34:16;15.97;;;15.20;;
3050;SDS011;1535;51.098;6.414;2023-05-10T13:36:46;15.57;;;14.87;;
3050;SDS011;1535;51.098;6.414;2023-05-10T13:39:13;16.80;;;15.90;;
3050;SDS011;1535;51.098;6.414;2023-05-10T13:41:41;15.93;;;15.13;;
3050;SDS011;1535;51.098;6.414;2023-05-10T13:44:09;15.00;;;14.30;;
3050;SDS011;1535;51.098;6.414;2023-05-10T13:46:39;16.80;;;15.53;;
3050;SDS011;1535;51.098;6.414;2023-05-10T13:49:07;16.10;;;15.30;;
3050;SDS011;1535;51.098;6.414;2023-05-10T13:51:35;16.50;;;15.50;;
3050;SDS011;1535;51.098;6.414;2023-05-10T13:54:03;16.93;;;16.03;;
3050;SDS011;1535;51.098;6.414;2023-05-10T13:56:30;16.13;;;15.43;;
3050;SDS011;1535;51.098;6.414;2023-05-10T13:58:57;16.10;;;15.30;;
3050;SDS011;1535;51.098;6.414;2023-05-10T14:01:24;15.73;;;15.03;;
3050;SDS011;1535;51.098;6.414;2023-05-10T14:03:50;17.23;;;16.33;;
3050;SDS011;1535;51.098;6.414;2023-05-10T14:06:17;16.80;;;15.60;;
3050;SDS011;1535;51.098;6.414;2023-05-10T14:08:45;16.63;;;15.73;;
3050;SDS011;1535;51.098;6.414;2023-05-10T14:11:14;16.83;;;15.93;;
3050;SDS011;1535;51.098;6.414;2023-05-10T14:13:41;16.30;;;15.50;;
3050;SDS011;1535;51.098;6.414;2023-05-10T14:16:08;18.27;;;17.30;;
3050;SDS011;1535;51.098;6.414;2023-05-10T14:18:36;17.60;;;16.60;;
3050;SDS011;1535;51.098;6.414;2023-05-10T14:21:03;16.57;;;15.77;;
3050;SDS011;1535;51.098;6.414;2023-05-10T14:23:30;15.77;;;15.07;;
3050;SDS011;1535;51.098;6.414;2023-05-10T14:25:57;17.20;;;16.30;;
3050;SDS011;1535;51.098;6.414;2023-05-10T14:28:25;16.83;;;15.83;;
3050;SDS011;1535;51.098;6.414;2023-05-10T14:30:52;17.50;;;16.67;;
3050;SDS011;1535;51.098;6.414;2023-05-10T14:33:19;18.17;;;17.07;;
3050;SDS011;1535;51.098;6.414;2023-05-10T14:35:46;17.13;;;16.33;;
3050;SDS011;1535;51.098;6.414;2023-05-10T14:38:14;19.13;;;18.13;;
3050;SDS011;1535;51.098;6.414;2023-05-10T14:40:41;16.10;;;15.23;;
3050;SDS011;1535;51.098;6.414;2023-05-10T14:43:08;15.87;;;15.17;;
3050;SDS011;1535;51.098;6.414;2023-05-10T14:45:37;17.27;;;16.07;;
3050;SDS011;1535;51.098;6.414;2023-05-10T14:48:06;17.40;;;16.47;;
3050;SDS011;1535;51.098;6.414;2023-05-10T14:50:37;16.20;;;15.50;;
3050;SDS011;1535;51.098;6.414;2023-05-10T14:53:04;16.43;;;15.73;;
3050;SDS011;1535;51.098;6.414;2023-05-10T14:55:31;17.47;;;16.33;;
3050;SDS011;1535;51.098;6.414;2023-05-10T14:57:59;15.90;;;15.20;;
3050;SDS011;1535;51.098;6.414;2023-05-10T15:00:27;15.90;;;15.20;;
3050;SDS011;1535;51.098;6.414;2023-05-10T15:02:56;16.70;;;15.90;;
3050;SDS011;1535;51.098;6.414;2023-05-10T15:05:23;17.60;;;16.53;;
3050;SDS011;1535;51.098;6.414;2023-05-10T15:07:50;16.33;;;15.43;;
3050;SDS011;1535;51.098;6.414;2023-05-10T15:10:17;15.53;;;14.83;;
3050;SDS011;1535;51.098;6.414;2023-05-10T15:12:44;17.07;;;16.17;;